• Join FlightAware (Why Join?)
  • Login
  • US Flag 
Gobble Gobble! 
09:42AM EST


 

Airport Tracker/Info


-or-


 

Live Flight TrackerFlight Track Log ✈ N1794X ✈ 18-Aug-2013 ✈ KCHN - KTPF

Flight Track Log - Related Links

Times and Time Zones

All times are in EDT time to prevent confusion due to time zone crossing. See the N1794X flight status page for this flight to view local times or setup timezone preferences in your user account.

Time Position Orientation Groundspeed Altitude Reporting Facility
EDT Latitude Longitude Course Direction KTS MPH feet Rate Location/Type
07:58PM 27.5586 -81.9114 299° West 70 81 1,600  Level Miami Center
07:59PM 27.5764 -81.9381 307° West 69 79 4,000 660 Climbing Miami Center
08:00PM 27.5944 -81.9644 308° West 106 122 3,000 -480 Descending Miami Center
08:01PM 27.6161 -81.9961 308° West 112 129 3,100 300 Climbing Miami Center
08:02PM 27.6361 -82.0250 308° West 112 129 3,600 360 Climbing Miami Center
08:03PM 27.5996 -82.0159 299° West  Level FlightAware Approximate
08:03PM 27.6536 -82.0564 302° West 112 129 3,900  Level Miami Center
08:04PM 27.6775 -82.0900 309° West 143 165 3,900  Level Miami Center
08:05PM 27.7000 -82.1333 300° West 162 186 4,000 -240 Climbing Tampa TRACON
08:06PM 27.7500 -82.1833 318° Northwest 178 205 3,500 -480 Descending Tampa TRACON
08:07PM 27.7833 -82.2333 307° West 185 213 3,100 -360 Descending Tampa TRACON
08:08PM 27.8000 -82.2667 299° West 183 211 2,800 -240 Descending Tampa TRACON
08:09PM 27.8333 -82.3167 307° West 174 200 2,700 -360 Descending Tampa TRACON
08:10PM 27.8667 -82.3667 307° West 168 193 2,100 -720 Descending Tampa TRACON
08:11PM 27.8833 -82.4000 300° West 154 177 1,400 -720 Descending Tampa TRACON
08:12PM 27.8833 -82.4333 270° West 132 152 900 -540 Descending Tampa TRACON
08:13PM 27.9000 -82.4667 300° West 104 120 400 -540 Descending Tampa TRACON
08:15PM 27.9154 -82.4494 90° East  Level Estimated
08:22PM 27.9154 -82.4494 310° West  Level Estimated
08:23PM 27.9154 -82.4494 310° West  Level Estimated